sensor_id;sensor_type;location;lat;lon;timestamp;temperature;humidity
75819;DHT22;64453;51.944;9.796;2023-10-13T00:01:34;20.30;78.90
75819;DHT22;64453;51.944;9.796;2023-10-13T00:04:01;20.30;78.70
75819;DHT22;64453;51.944;9.796;2023-10-13T00:06:31;20.30;78.80
75819;DHT22;64453;51.944;9.796;2023-10-13T00:08:58;20.30;78.70
75819;DHT22;64453;51.944;9.796;2023-10-13T00:11:25;20.30;78.90
75819;DHT22;64453;51.944;9.796;2023-10-13T00:13:54;20.30;79.20
75819;DHT22;64453;51.944;9.796;2023-10-13T00:16:21;20.30;79.40
75819;DHT22;64453;51.944;9.796;2023-10-13T00:18:51;20.30;79.40
75819;DHT22;64453;51.944;9.796;2023-10-13T00:21:20;20.30;79.40
75819;DHT22;64453;51.944;9.796;2023-10-13T00:23:57;20.30;79.70
75819;DHT22;64453;51.944;9.796;2023-10-13T00:26:27;20.30;79.80
75819;DHT22;64453;51.944;9.796;2023-10-13T00:28:58;20.30;79.80
75819;DHT22;64453;51.944;9.796;2023-10-13T00:31:35;20.30;79.70
75819;DHT22;64453;51.944;9.796;2023-10-13T00:34:04;20.40;79.60
75819;DHT22;64453;51.944;9.796;2023-10-13T00:36:37;20.40;79.20
75819;DHT22;64453;51.944;9.796;2023-10-13T00:39:13;20.30;79.30
75819;DHT22;64453;51.944;9.796;2023-10-13T00:41:41;20.40;79.40
75819;DHT22;64453;51.944;9.796;2023-10-13T00:44:19;20.40;79.30
75819;DHT22;64453;51.944;9.796;2023-10-13T00:46:57;20.40;79.20
75819;DHT22;64453;51.944;9.796;2023-10-13T00:49:23;20.30;78.90
75819;DHT22;64453;51.944;9.796;2023-10-13T00:51:51;20.30;78.90
75819;DHT22;64453;51.944;9.796;2023-10-13T00:54:18;20.30;79.00
75819;DHT22;64453;51.944;9.796;2023-10-13T00:56:52;20.40;79.00
75819;DHT22;64453;51.944;9.796;2023-10-13T00:59:24;20.30;78.70
75819;DHT22;64453;51.944;9.796;2023-10-13T01:01:52;20.30;78.60
75819;DHT22;64453;51.944;9.796;2023-10-13T01:04:21;20.30;78.90
75819;DHT22;64453;51.944;9.796;2023-10-13T01:06:50;20.30;79.00
75819;DHT22;64453;51.944;9.796;2023-10-13T01:09:16;20.30;78.90
75819;DHT22;64453;51.944;9.796;2023-10-13T01:11:44;20.30;79.10
75819;DHT22;64453;51.944;9.796;2023-10-13T01:14:12;20.20;78.90
75819;DHT22;64453;51.944;9.796;2023-10-13T01:16:42;20.30;78.90
75819;DHT22;64453;51.944;9.796;2023-10-13T01:19:09;20.20;78.80
75819;DHT22;64453;51.944;9.796;2023-10-13T01:21:38;20.30;79.20
75819;DHT22;64453;51.944;9.796;2023-10-13T01:24:08;20.30;79.20
75819;DHT22;64453;51.944;9.796;2023-10-13T01:26:38;20.30;79.20
75819;DHT22;64453;51.944;9.796;2023-10-13T01:29:05;20.30;79.30
75819;DHT22;64453;51.944;9.796;2023-10-13T01:31:38;20.30;79.30
75819;DHT22;64453;51.944;9.796;2023-10-13T01:34:11;20.30;79.20
75819;DHT22;64453;51.944;9.796;2023-10-13T01:36:40;20.30;79.20
75819;DHT22;64453;51.944;9.796;2023-10-13T01:39:08;20.30;79.20
75819;DHT22;64453;51.944;9.796;2023-10-13T01:41:42;20.20;79.20
75819;DHT22;64453;51.944;9.796;2023-10-13T01:44:08;20.30;79.30
75819;DHT22;64453;51.944;9.796;2023-10-13T01:46:37;20.10;79.60
75819;DHT22;64453;51.944;9.796;2023-10-13T01:49:03;20.10;79.50
75819;DHT22;64453;51.944;9.796;2023-10-13T01:51:30;20.20;79.40
75819;DHT22;64453;51.944;9.796;2023-10-13T01:53:56;20.20;79.20
75819;DHT22;64453;51.944;9.796;2023-10-13T01:56:25;20.20;79.90
75819;DHT22;64453;51.944;9.796;2023-10-13T01:58:55;20.30;79.20
75819;DHT22;64453;51.944;9.796;2023-10-13T02:01:22;20.30;79.20
75819;DHT22;64453;51.944;9.796;2023-10-13T02:03:55;20.30;79.40
75819;DHT22;64453;51.944;9.796;2023-10-13T02:06:29;20.30;80.20
75819;DHT22;64453;51.944;9.796;2023-10-13T02:08:59;20.30;79.30
75819;DHT22;64453;51.944;9.796;2023-10-13T02:11:37;20.30;78.90
75819;DHT22;64453;51.944;9.796;2023-10-13T02:14:04;20.30;78.70
75819;DHT22;64453;51.944;9.796;2023-10-13T02:16:31;20.30;78.60
75819;DHT22;64453;51.944;9.796;2023-10-13T02:18:57;20.30;78.80
75819;DHT22;64453;51.944;9.796;2023-10-13T02:21:30;20.30;78.50
75819;DHT22;64453;51.944;9.796;2023-10-13T02:23:57;20.20;78.40
75819;DHT22;64453;51.944;9.796;2023-10-13T02:26:29;20.30;78.50
75819;DHT22;64453;51.944;9.796;2023-10-13T02:28:58;20.30;78.40
75819;DHT22;64453;51.944;9.796;2023-10-13T02:31:27;20.30;78.50
75819;DHT22;64453;51.944;9.796;2023-10-13T02:33:53;20.30;78.50
75819;DHT22;64453;51.944;9.796;2023-10-13T02:36:21;20.30;78.30
75819;DHT22;64453;51.944;9.796;2023-10-13T02:38:49;20.30;78.40
75819;DHT22;64453;51.944;9.796;2023-10-13T02:41:18;20.20;78.20
75819;DHT22;64453;51.944;9.796;2023-10-13T02:43:51;20.20;78.10
75819;DHT22;64453;51.944;9.796;2023-10-13T02:46:20;20.20;78.30
75819;DHT22;64453;51.944;9.796;2023-10-13T02:48:47;20.30;78.40
75819;DHT22;64453;51.944;9.796;2023-10-13T02:51:19;20.20;78.30
75819;DHT22;64453;51.944;9.796;2023-10-13T02:53:48;20.30;78.40
75819;DHT22;64453;51.944;9.796;2023-10-13T02:56:15;20.20;78.20
75819;DHT22;64453;51.944;9.796;2023-10-13T02:58:47;20.20;78.20
75819;DHT22;64453;51.944;9.796;2023-10-13T03:01:20;20.20;78.10
75819;DHT22;64453;51.944;9.796;2023-10-13T03:03:49;20.10;78.00
75819;DHT22;64453;51.944;9.796;2023-10-13T03:06:20;20.20;77.90
75819;DHT22;64453;51.944;9.796;2023-10-13T03:08:49;20.20;77.80
75819;DHT22;64453;51.944;9.796;2023-10-13T03:11:18;20.20;77.60
75819;DHT22;64453;51.944;9.796;2023-10-13T03:13:49;20.20;77.70
75819;DHT22;64453;51.944;9.796;2023-10-13T03:16:18;20.10;77.90
75819;DHT22;64453;51.944;9.796;2023-10-13T03:18:47;20.20;78.00
75819;DHT22;64453;51.944;9.796;2023-10-13T03:21:22;20.20;77.70
75819;DHT22;64453;51.944;9.796;2023-10-13T03:23:57;20.20;77.60
75819;DHT22;64453;51.944;9.796;2023-10-13T03:26:33;20.10;77.60
75819;DHT22;64453;51.944;9.796;2023-10-13T03:29:02;20.10;77.70
75819;DHT22;64453;51.944;9.796;2023-10-13T03:31:31;20.20;78.00
75819;DHT22;64453;51.944;9.796;2023-10-13T03:34:04;20.20;77.90
75819;DHT22;64453;51.944;9.796;2023-10-13T03:36:37;20.20;78.00
75819;DHT22;64453;51.944;9.796;2023-10-13T03:39:23;20.10;78.10
75819;DHT22;64453;51.944;9.796;2023-10-13T03:41:55;20.20;77.90
75819;DHT22;64453;51.944;9.796;2023-10-13T03:44:23;20.20;78.00
75819;DHT22;64453;51.944;9.796;2023-10-13T03:46:57;20.20;78.00
75819;DHT22;64453;51.944;9.796;2023-10-13T03:49:34;20.20;78.00
75819;DHT22;64453;51.944;9.796;2023-10-13T03:52:04;20.20;78.10
75819;DHT22;64453;51.944;9.796;2023-10-13T03:54:31;20.20;78.20
75819;DHT22;64453;51.944;9.796;2023-10-13T03:57:00;20.30;78.10
75819;DHT22;64453;51.944;9.796;2023-10-13T03:59:36;20.20;79.10
75819;DHT22;64453;51.944;9.796;2023-10-13T04:02:06;20.20;78.40
75819;DHT22;64453;51.944;9.796;2023-10-13T04:04:43;20.20;78.20
75819;DHT22;64453;51.944;9.796;2023-10-13T04:07:15;20.30;78.00
75819;DHT22;64453;51.944;9.796;2023-10-13T04:09:59;20.30;77.90
75819;DHT22;64453;51.944;9.796;2023-10-13T04:12:57;20.30;78.20
75819;DHT22;64453;51.944;9.796;2023-10-13T04:15:43;20.20;78.20
75819;DHT22;64453;51.944;9.796;2023-10-13T04:18:29;20.20;78.70
75819;DHT22;64453;51.944;9.796;2023-10-13T04:21:12;20.30;78.70
75819;DHT22;64453;51.944;9.796;2023-10-13T04:24:05;20.20;78.30
75819;DHT22;64453;51.944;9.796;2023-10-13T04:26:48;20.30;78.10
75819;DHT22;64453;51.944;9.796;2023-10-13T04:29:44;20.30;78.30
75819;DHT22;64453;51.944;9.796;2023-10-13T04:32:21;20.30;78.70
75819;DHT22;64453;51.944;9.796;2023-10-13T04:34:57;20.20;78.90
75819;DHT22;64453;51.944;9.796;2023-10-13T04:37:34;20.00;79.20
75819;DHT22;64453;51.944;9.796;2023-10-13T04:40:15;20.20;79.40
75819;DHT22;64453;51.944;9.796;2023-10-13T04:42:44;19.90;79.40
75819;DHT22;64453;51.944;9.796;2023-10-13T04:45:19;20.00;80.30
75819;DHT22;64453;51.944;9.796;2023-10-13T04:48:05;20.00;80.10
75819;DHT22;64453;51.944;9.796;2023-10-13T04:51:00;19.90;81.00
75819;DHT22;64453;51.944;9.796;2023-10-13T04:53:41;20.10;80.40
75819;DHT22;64453;51.944;9.796;2023-10-13T04:56:22;20.10;80.00
75819;DHT22;64453;51.944;9.796;2023-10-13T04:59:03;20.20;79.50
75819;DHT22;64453;51.944;9.796;2023-10-13T05:02:00;20.20;79.40
75819;DHT22;64453;51.944;9.796;2023-10-13T05:04:41;20.30;79.60
75819;DHT22;64453;51.944;9.796;2023-10-13T05:07:24;20.30;80.50
75819;DHT22;64453;51.944;9.796;2023-10-13T05:10:08;20.30;79.30
75819;DHT22;64453;51.944;9.796;2023-10-13T05:12:52;20.10;79.20
75819;DHT22;64453;51.944;9.796;2023-10-13T05:15:43;20.20;79.40
75819;DHT22;64453;51.944;9.796;2023-10-13T05:18:29;20.20;79.40
75819;DHT22;64453;51.944;9.796;2023-10-13T05:21:13;20.30;79.90
75819;DHT22;64453;51.944;9.796;2023-10-13T05:24:08;20.40;79.70
75819;DHT22;64453;51.944;9.796;2023-10-13T05:26:53;20.30;79.30
75819;DHT22;64453;51.944;9.796;2023-10-13T05:29:39;20.30;79.10
75819;DHT22;64453;51.944;9.796;2023-10-13T05:32:24;20.30;79.30
75819;DHT22;64453;51.944;9.796;2023-10-13T05:35:09;20.30;79.80
75819;DHT22;64453;51.944;9.796;2023-10-13T05:37:53;20.40;79.60
75819;DHT22;64453;51.944;9.796;2023-10-13T05:40:39;20.40;80.10
75819;DHT22;64453;51.944;9.796;2023-10-13T05:43:23;20.50;79.40
75819;DHT22;64453;51.944;9.796;2023-10-13T05:46:08;20.40;79.20
75819;DHT22;64453;51.944;9.796;2023-10-13T05:49:02;20.50;79.40
75819;DHT22;64453;51.944;9.796;2023-10-13T05:51:52;20.50;79.00
75819;DHT22;64453;51.944;9.796;2023-10-13T05:54:32;20.50;80.00
75819;DHT22;64453;51.944;9.796;2023-10-13T05:57:18;20.40;78.90
75819;DHT22;64453;51.944;9.796;2023-10-13T06:00:02;20.40;78.80
75819;DHT22;64453;51.944;9.796;2023-10-13T06:02:47;20.40;79.10
75819;DHT22;64453;51.944;9.796;2023-10-13T06:05:31;20.30;80.00
75819;DHT22;64453;51.944;9.796;2023-10-13T06:08:18;20.20;81.30
75819;DHT22;64453;51.944;9.796;2023-10-13T06:11:02;20.40;81.30
75819;DHT22;64453;51.944;9.796;2023-10-13T06:13:48;20.50;80.80
75819;DHT22;64453;51.944;9.796;2023-10-13T06:16:32;20.50;81.50
75819;DHT22;64453;51.944;9.796;2023-10-13T06:19:17;20.60;81.40
75819;DHT22;64453;51.944;9.796;2023-10-13T06:22:02;20.60;81.20
75819;DHT22;64453;51.944;9.796;2023-10-13T06:24:47;20.60;81.30
75819;DHT22;64453;51.944;9.796;2023-10-13T06:27:31;20.60;81.10
75819;DHT22;64453;51.944;9.796;2023-10-13T06:30:17;20.60;81.40
75819;DHT22;64453;51.944;9.796;2023-10-13T06:32:44;20.60;81.30
75819;DHT22;64453;51.944;9.796;2023-10-13T06:35:11;20.40;82.00
75819;DHT22;64453;51.944;9.796;2023-10-13T06:37:49;20.50;81.90
75819;DHT22;64453;51.944;9.796;2023-10-13T06:40:16;20.60;82.20
75819;DHT22;64453;51.944;9.796;2023-10-13T06:42:51;20.60;81.90
75819;DHT22;64453;51.944;9.796;2023-10-13T06:45:20;20.60;81.70
75819;DHT22;64453;51.944;9.796;2023-10-13T06:47:47;20.70;81.60
75819;DHT22;64453;51.944;9.796;2023-10-13T06:50:18;20.70;81.70
75819;DHT22;64453;51.944;9.796;2023-10-13T06:52:50;20.70;81.80
75819;DHT22;64453;51.944;9.796;2023-10-13T06:55:20;20.50;82.00
75819;DHT22;64453;51.944;9.796;2023-10-13T06:57:53;20.70;82.10
75819;DHT22;64453;51.944;9.796;2023-10-13T07:00:26;20.70;82.00
75819;DHT22;64453;51.944;9.796;2023-10-13T07:02:55;20.70;81.70
75819;DHT22;64453;51.944;9.796;2023-10-13T07:05:34;20.70;82.10
75819;DHT22;64453;51.944;9.796;2023-10-13T07:08:04;20.60;82.40
75819;DHT22;64453;51.944;9.796;2023-10-13T07:10:32;20.60;82.90
75819;DHT22;64453;51.944;9.796;2023-10-13T07:13:10;20.60;82.90
75819;DHT22;64453;51.944;9.796;2023-10-13T07:15:40;20.70;82.70
75819;DHT22;64453;51.944;9.796;2023-10-13T07:18:12;20.80;82.80
75819;DHT22;64453;51.944;9.796;2023-10-13T07:20:40;20.80;82.90
75819;DHT22;64453;51.944;9.796;2023-10-13T07:23:11;20.80;82.70
75819;DHT22;64453;51.944;9.796;2023-10-13T07:25:51;20.80;82.80
75819;DHT22;64453;51.944;9.796;2023-10-13T07:28:20;20.80;83.60
75819;DHT22;64453;51.944;9.796;2023-10-13T07:30:48;20.80;83.30
75819;DHT22;64453;51.944;9.796;2023-10-13T07:33:37;20.80;83.40
75819;DHT22;64453;51.944;9.796;2023-10-13T07:36:07;20.80;83.90
75819;DHT22;64453;51.944;9.796;2023-10-13T07:38:41;20.90;84.40
75819;DHT22;64453;51.944;9.796;2023-10-13T07:41:09;20.90;84.00
75819;DHT22;64453;51.944;9.796;2023-10-13T07:43:41;20.70;84.40
75819;DHT22;64453;51.944;9.796;2023-10-13T07:46:11;20.90;85.10
75819;DHT22;64453;51.944;9.796;2023-10-13T07:48:39;20.80;84.90
75819;DHT22;64453;51.944;9.796;2023-10-13T07:51:11;20.90;84.20
75819;DHT22;64453;51.944;9.796;2023-10-13T07:53:41;20.80;83.70
75819;DHT22;64453;51.944;9.796;2023-10-13T07:56:09;20.80;84.80
75819;DHT22;64453;51.944;9.796;2023-10-13T07:58:39;20.80;85.10
75819;DHT22;64453;51.944;9.796;2023-10-13T08:01:19;20.80;85.20
75819;DHT22;64453;51.944;9.796;2023-10-13T08:03:47;20.90;85.00
75819;DHT22;64453;51.944;9.796;2023-10-13T08:06:29;20.80;84.70
75819;DHT22;64453;51.944;9.796;2023-10-13T08:08:57;20.90;85.10
75819;DHT22;64453;51.944;9.796;2023-10-13T08:11:34;21.00;84.40
75819;DHT22;64453;51.944;9.796;2023-10-13T08:14:04;21.00;84.30
75819;DHT22;64453;51.944;9.796;2023-10-13T08:16:43;21.00;84.30
75819;DHT22;64453;51.944;9.796;2023-10-13T08:19:19;21.00;84.30
75819;DHT22;64453;51.944;9.796;2023-10-13T08:21:53;21.10;84.70
75819;DHT22;64453;51.944;9.796;2023-10-13T08:24:24;21.10;85.10
75819;DHT22;64453;51.944;9.796;2023-10-13T08:26:55;21.10;85.30
75819;DHT22;64453;51.944;9.796;2023-10-13T08:29:39;21.00;85.00
75819;DHT22;64453;51.944;9.796;2023-10-13T08:32:33;21.10;85.30
75819;DHT22;64453;51.944;9.796;2023-10-13T08:35:11;21.00;85.00
75819;DHT22;64453;51.944;9.796;2023-10-13T08:38:00;21.10;85.50
75819;DHT22;64453;51.944;9.796;2023-10-13T08:40:30;20.90;86.30
75819;DHT22;64453;51.944;9.796;2023-10-13T08:43:14;20.80;86.30
75819;DHT22;64453;51.944;9.796;2023-10-13T08:45:43;20.90;86.60
75819;DHT22;64453;51.944;9.796;2023-10-13T08:48:26;21.00;86.30
75819;DHT22;64453;51.944;9.796;2023-10-13T08:51:00;21.10;86.10
75819;DHT22;64453;51.944;9.796;2023-10-13T08:53:46;21.10;86.60
75819;DHT22;64453;51.944;9.796;2023-10-13T08:56:18;21.20;85.80
75819;DHT22;64453;51.944;9.796;2023-10-13T08:58:57;21.30;85.80
75819;DHT22;64453;51.944;9.796;2023-10-13T09:01:36;21.40;86.10
75819;DHT22;64453;51.944;9.796;2023-10-13T09:04:13;20.90;88.20
75819;DHT22;64453;51.944;9.796;2023-10-13T09:06:50;21.00;88.90
75819;DHT22;64453;51.944;9.796;2023-10-13T09:09:46;21.20;88.20
75819;DHT22;64453;51.944;9.796;2023-10-13T09:12:37;21.20;87.50
75819;DHT22;64453;51.944;9.796;2023-10-13T09:15:07;21.30;86.80
75819;DHT22;64453;51.944;9.796;2023-10-13T09:17:46;21.40;86.30
75819;DHT22;64453;51.944;9.796;2023-10-13T09:20:28;21.60;87.70
75819;DHT22;64453;51.944;9.796;2023-10-13T09:23:09;21.40;86.40
75819;DHT22;64453;51.944;9.796;2023-10-13T09:25:36;21.50;88.30
75819;DHT22;64453;51.944;9.796;2023-10-13T09:28:10;21.70;88.60
75819;DHT22;64453;51.944;9.796;2023-10-13T09:30:44;21.70;87.10
75819;DHT22;64453;51.944;9.796;2023-10-13T09:33:11;21.70;87.50
75819;DHT22;64453;51.944;9.796;2023-10-13T09:35:46;21.70;86.00
75819;DHT22;64453;51.944;9.796;2023-10-13T09:38:15;21.80;86.90
75819;DHT22;64453;51.944;9.796;2023-10-13T09:40:42;21.70;86.00
75819;DHT22;64453;51.944;9.796;2023-10-13T09:43:16;21.80;85.00
75819;DHT22;64453;51.944;9.796;2023-10-13T09:45:46;21.80;85.20
75819;DHT22;64453;51.944;9.796;2023-10-13T09:48:32;22.00;86.00
75819;DHT22;64453;51.944;9.796;2023-10-13T09:51:02;22.00;86.30
75819;DHT22;64453;51.944;9.796;2023-10-13T09:53:31;22.00;85.80
75819;DHT22;64453;51.944;9.796;2023-10-13T09:56:03;22.00;86.60
75819;DHT22;64453;51.944;9.796;2023-10-13T09:58:48;22.00;85.30
75819;DHT22;64453;51.944;9.796;2023-10-13T10:01:23;22.10;85.70
75819;DHT22;64453;51.944;9.796;2023-10-13T10:04:06;22.10;83.70
75819;DHT22;64453;51.944;9.796;2023-10-13T10:06:36;22.20;84.30
75819;DHT22;64453;51.944;9.796;2023-10-13T10:09:07;22.10;83.60
75819;DHT22;64453;51.944;9.796;2023-10-13T10:15:11;22.30;83.00
75819;DHT22;64453;51.944;9.796;2023-10-13T10:17:54;22.20;83.30
75819;DHT22;64453;51.944;9.796;2023-10-13T10:20:28;22.10;82.90
75819;DHT22;64453;51.944;9.796;2023-10-13T10:23:06;22.20;82.80
75819;DHT22;64453;51.944;9.796;2023-10-13T10:25:36;22.20;82.30
75819;DHT22;64453;51.944;9.796;2023-10-13T10:28:06;22.20;81.60
75819;DHT22;64453;51.944;9.796;2023-10-13T10:30:36;22.30;82.20
75819;DHT22;64453;51.944;9.796;2023-10-13T10:33:05;22.40;81.90
75819;DHT22;64453;51.944;9.796;2023-10-13T10:35:38;22.50;82.40
75819;DHT22;64453;51.944;9.796;2023-10-13T10:38:11;22.60;81.90
75819;DHT22;64453;51.944;9.796;2023-10-13T10:40:50;22.50;80.30
75819;DHT22;64453;51.944;9.796;2023-10-13T10:43:23;22.30;78.80
75819;DHT22;64453;51.944;9.796;2023-10-13T10:45:53;22.30;81.20
75819;DHT22;64453;51.944;9.796;2023-10-13T10:48:25;22.40;81.10
75819;DHT22;64453;51.944;9.796;2023-10-13T10:50:57;22.40;79.80
75819;DHT22;64453;51.944;9.796;2023-10-13T10:53:34;22.60;80.70
75819;DHT22;64453;51.944;9.796;2023-10-13T10:56:10;22.60;79.80
75819;DHT22;64453;51.944;9.796;2023-10-13T10:58:49;22.60;79.70
75819;DHT22;64453;51.944;9.796;2023-10-13T11:01:20;22.60;77.60
75819;DHT22;64453;51.944;9.796;2023-10-13T11:03:54;22.50;77.50
75819;DHT22;64453;51.944;9.796;2023-10-13T11:06:24;22.70;78.40
75819;DHT22;64453;51.944;9.796;2023-10-13T11:09:04;22.70;77.80
75819;DHT22;64453;51.944;9.796;2023-10-13T11:11:44;22.80;78.10
75819;DHT22;64453;51.944;9.796;2023-10-13T11:14:20;22.90;78.00
75819;DHT22;64453;51.944;9.796;2023-10-13T11:16:50;22.70;76.50
75819;DHT22;64453;51.944;9.796;2023-10-13T11:19:19;22.90;76.20
75819;DHT22;64453;51.944;9.796;2023-10-13T11:21:52;22.80;75.70
75819;DHT22;64453;51.944;9.796;2023-10-13T11:24:21;22.90;76.10
75819;DHT22;64453;51.944;9.796;2023-10-13T11:26:49;22.90;76.00
75819;DHT22;64453;51.944;9.796;2023-10-13T11:29:16;22.80;75.00
75819;DHT22;64453;51.944;9.796;2023-10-13T11:31:46;22.90;75.00
75819;DHT22;64453;51.944;9.796;2023-10-13T11:34:20;22.80;73.90
75819;DHT22;64453;51.944;9.796;2023-10-13T11:36:47;22.90;74.90
75819;DHT22;64453;51.944;9.796;2023-10-13T11:39:14;22.90;74.30
75819;DHT22;64453;51.944;9.796;2023-10-13T11:41:51;22.90;74.20
75819;DHT22;64453;51.944;9.796;2023-10-13T11:44:21;23.00;74.00
75819;DHT22;64453;51.944;9.796;2023-10-13T11:46:57;23.00;74.50
75819;DHT22;64453;51.944;9.796;2023-10-13T11:49:38;23.00;74.60
75819;DHT22;64453;51.944;9.796;2023-10-13T11:52:05;23.00;74.00
75819;DHT22;64453;51.944;9.796;2023-10-13T11:54:41;22.90;74.60
75819;DHT22;64453;51.944;9.796;2023-10-13T11:57:10;23.00;73.90
75819;DHT22;64453;51.944;9.796;2023-10-13T11:59:37;22.90;73.20
75819;DHT22;64453;51.944;9.796;2023-10-13T12:02:11;23.10;71.80
75819;DHT22;64453;51.944;9.796;2023-10-13T12:04:56;23.10;72.80
75819;DHT22;64453;51.944;9.796;2023-10-13T12:07:25;23.10;73.80
75819;DHT22;64453;51.944;9.796;2023-10-13T12:10:10;23.10;71.70
75819;DHT22;64453;51.944;9.796;2023-10-13T12:12:43;23.20;72.60
75819;DHT22;64453;51.944;9.796;2023-10-13T12:15:12;23.30;72.60
75819;DHT22;64453;51.944;9.796;2023-10-13T12:17:51;23.20;71.90
75819;DHT22;64453;51.944;9.796;2023-10-13T12:20:18;23.30;71.70
75819;DHT22;64453;51.944;9.796;2023-10-13T12:22:59;23.30;70.90
75819;DHT22;64453;51.944;9.796;2023-10-13T12:25:37;23.20;70.90
75819;DHT22;64453;51.944;9.796;2023-10-13T12:28:28;23.30;70.40
75819;DHT22;64453;51.944;9.796;2023-10-13T12:31:02;23.40;69.90
75819;DHT22;64453;51.944;9.796;2023-10-13T12:33:32;23.40;70.00
75819;DHT22;64453;51.944;9.796;2023-10-13T12:36:04;23.40;69.80
75819;DHT22;64453;51.944;9.796;2023-10-13T12:38:37;23.50;69.20
75819;DHT22;64453;51.944;9.796;2023-10-13T12:41:17;23.30;70.20
75819;DHT22;64453;51.944;9.796;2023-10-13T12:44:05;23.40;69.70
75819;DHT22;64453;51.944;9.796;2023-10-13T12:46:50;23.40;69.30
75819;DHT22;64453;51.944;9.796;2023-10-13T12:49:35;23.50;69.80
75819;DHT22;64453;51.944;9.796;2023-10-13T12:52:16;23.50;69.20
75819;DHT22;64453;51.944;9.796;2023-10-13T12:54:45;23.40;68.70
75819;DHT22;64453;51.944;9.796;2023-10-13T12:57:20;23.30;69.00
75819;DHT22;64453;51.944;9.796;2023-10-13T12:59:50;23.40;68.90
75819;DHT22;64453;51.944;9.796;2023-10-13T13:02:19;23.50;69.30
75819;DHT22;64453;51.944;9.796;2023-10-13T13:04:46;23.50;69.50
75819;DHT22;64453;51.944;9.796;2023-10-13T13:07:18;23.50;69.10
75819;DHT22;64453;51.944;9.796;2023-10-13T13:09:45;23.50;68.90
75819;DHT22;64453;51.944;9.796;2023-10-13T13:12:12;23.50;68.40
75819;DHT22;64453;51.944;9.796;2023-10-13T13:14:39;23.50;67.50
75819;DHT22;64453;51.944;9.796;2023-10-13T13:17:12;23.40;67.00
75819;DHT22;64453;51.944;9.796;2023-10-13T13:19:39;23.50;68.20
75819;DHT22;64453;51.944;9.796;2023-10-13T13:22:07;23.50;67.30
75819;DHT22;64453;51.944;9.796;2023-10-13T13:24:38;23.50;67.30
75819;DHT22;64453;51.944;9.796;2023-10-13T13:27:09;23.50;67.10
75819;DHT22;64453;51.944;9.796;2023-10-13T13:29:39;23.60;67.40
75819;DHT22;64453;51.944;9.796;2023-10-13T13:32:07;23.70;67.80
75819;DHT22;64453;51.944;9.796;2023-10-13T13:34:49;23.70;66.70
75819;DHT22;64453;51.944;9.796;2023-10-13T13:37:24;23.80;66.90
75819;DHT22;64453;51.944;9.796;2023-10-13T13:39:53;23.80;66.20
75819;DHT22;64453;51.944;9.796;2023-10-13T13:42:19;23.70;66.20
75819;DHT22;64453;51.944;9.796;2023-10-13T13:44:46;23.90;66.70
75819;DHT22;64453;51.944;9.796;2023-10-13T13:47:14;24.10;65.90
75819;DHT22;64453;51.944;9.796;2023-10-13T13:49:42;24.10;65.70
75819;DHT22;64453;51.944;9.796;2023-10-13T13:52:18;24.10;65.40
75819;DHT22;64453;51.944;9.796;2023-10-13T13:54:47;24.00;64.50
75819;DHT22;64453;51.944;9.796;2023-10-13T13:57:14;24.10;64.60
75819;DHT22;64453;51.944;9.796;2023-10-13T13:59:43;24.10;65.30
75819;DHT22;64453;51.944;9.796;2023-10-13T14:02:10;24.00;64.30
75819;DHT22;64453;51.944;9.796;2023-10-13T14:04:46;24.00;65.00
75819;DHT22;64453;51.944;9.796;2023-10-13T14:07:16;24.10;64.90
75819;DHT22;64453;51.944;9.796;2023-10-13T14:09:47;24.20;65.20
75819;DHT22;64453;51.944;9.796;2023-10-13T14:12:17;24.10;64.00
75819;DHT22;64453;51.944;9.796;2023-10-13T14:14:55;24.20;64.60
75819;DHT22;64453;51.944;9.796;2023-10-13T14:17:23;24.20;64.70
75819;DHT22;64453;51.944;9.796;2023-10-13T14:19:55;24.20;63.90
75819;DHT22;64453;51.944;9.796;2023-10-13T14:22:25;24.20;63.70
75819;DHT22;64453;51.944;9.796;2023-10-13T14:24:52;24.20;64.10
75819;DHT22;64453;51.944;9.796;2023-10-13T14:27:21;24.20;63.80
75819;DHT22;64453;51.944;9.796;2023-10-13T14:29:50;24.30;63.70
75819;DHT22;64453;51.944;9.796;2023-10-13T14:32:19;24.30;63.30
75819;DHT22;64453;51.944;9.796;2023-10-13T14:34:50;24.30;63.00
75819;DHT22;64453;51.944;9.796;2023-10-13T14:37:22;24.30;64.10
75819;DHT22;64453;51.944;9.796;2023-10-13T14:39:55;24.30;63.50
75819;DHT22;64453;51.944;9.796;2023-10-13T14:42:24;24.40;63.00
75819;DHT22;64453;51.944;9.796;2023-10-13T14:44:51;24.40;62.80
75819;DHT22;64453;51.944;9.796;2023-10-13T14:47:22;24.30;62.90
75819;DHT22;64453;51.944;9.796;2023-10-13T14:49:52;24.30;62.70
75819;DHT22;64453;51.944;9.796;2023-10-13T14:52:21;24.30;63.00
75819;DHT22;64453;51.944;9.796;2023-10-13T14:54:50;24.40;62.70
75819;DHT22;64453;51.944;9.796;2023-10-13T14:57:21;24.30;62.20
75819;DHT22;64453;51.944;9.796;2023-10-13T14:59:51;24.30;62.50
75819;DHT22;64453;51.944;9.796;2023-10-13T15:02:18;24.30;62.50
75819;DHT22;64453;51.944;9.796;2023-10-13T15:04:46;24.40;62.40
75819;DHT22;64453;51.944;9.796;2023-10-13T15:07:15;24.30;61.80
75819;DHT22;64453;51.944;9.796;2023-10-13T15:09:42;24.30;62.00
75819;DHT22;64453;51.944;9.796;2023-10-13T15:12:11;24.30;62.40
75819;DHT22;64453;51.944;9.796;2023-10-13T15:14:39;24.30;62.30
75819;DHT22;64453;51.944;9.796;2023-10-13T15:17:08;24.30;62.30
75819;DHT22;64453;51.944;9.796;2023-10-13T15:19:35;24.30;61.60
75819;DHT22;64453;51.944;9.796;2023-10-13T15:22:04;24.10;61.20
75819;DHT22;64453;51.944;9.796;2023-10-13T15:24:33;24.10;62.30
75819;DHT22;64453;51.944;9.796;2023-10-13T15:27:08;24.20;61.80
75819;DHT22;64453;51.944;9.796;2023-10-13T15:29:36;24.30;62.30
75819;DHT22;64453;51.944;9.796;2023-10-13T15:32:04;24.10;61.30
75819;DHT22;64453;51.944;9.796;2023-10-13T15:34:51;24.20;61.60
75819;DHT22;64453;51.944;9.796;2023-10-13T15:37:18;24.20;61.80
75819;DHT22;64453;51.944;9.796;2023-10-13T15:39:50;24.30;62.10
75819;DHT22;64453;51.944;9.796;2023-10-13T15:42:18;24.30;61.90
75819;DHT22;64453;51.944;9.796;2023-10-13T15:44:48;24.30;61.70
75819;DHT22;64453;51.944;9.796;2023-10-13T15:47:15;24.30;61.90
75819;DHT22;64453;51.944;9.796;2023-10-13T15:49:42;24.30;61.80
75819;DHT22;64453;51.944;9.796;2023-10-13T15:52:09;24.30;62.10
75819;DHT22;64453;51.944;9.796;2023-10-13T15:54:36;24.30;62.00
75819;DHT22;64453;51.944;9.796;2023-10-13T15:57:08;24.20;61.70
75819;DHT22;64453;51.944;9.796;2023-10-13T15:59:41;24.20;61.50
75819;DHT22;64453;51.944;9.796;2023-10-13T16:02:12;24.20;61.60
75819;DHT22;64453;51.944;9.796;2023-10-13T16:04:42;24.20;61.50
75819;DHT22;64453;51.944;9.796;2023-10-13T16:07:09;24.20;61.60
75819;DHT22;64453;51.944;9.796;2023-10-13T16:09:36;24.20;61.50
75819;DHT22;64453;51.944;9.796;2023-10-13T16:12:04;24.20;61.40
75819;DHT22;64453;51.944;9.796;2023-10-13T16:14:36;24.10;61.30